Time;durP1;ratioP1;P1;durP2;ratioP2;P2;SDS_P1;SDS_P2;PMS_P1;PMS_P2;Temp;Humidity;BMP_temperature;BMP_pressure;BME280_temperature;BME280_humidity;BME280_pressure;Samples;Min_cycle;Max_cycle;Signal;HPM_P1;HPM_P2
2021/12/30 00:01:17;;;;;;;32.35;26.20;;;-12.20;82.50;-13.30;98795.00;;;;4939923;28;87149;-61
2021/12/30 00:03:45;;;;;;;31.77;26.02;;;-12.20;82.60;-13.30;98797.00;;;;4942036;28;88400;-61
2021/12/30 00:06:11;;;;;;;29.50;25.60;;;-12.20;82.70;-13.30;98780.00;;;;4941812;28;87307;-61
2021/12/30 00:08:38;;;;;;;33.13;26.20;;;-12.10;82.90;-13.30;98806.00;;;;4942212;28;87564;-61
2021/12/30 00:11:06;;;;;;;31.05;25.35;;;-12.10;82.70;-13.20;98803.00;;;;4942098;28;87900;-61
2021/12/30 00:13:33;;;;;;;31.17;25.15;;;-12.10;82.60;-13.20;98819.00;;;;4926926;28;87448;-61
2021/12/30 00:15:59;;;;;;;31.98;26.52;;;-12.10;82.60;-13.20;98797.00;;;;4926210;28;86964;-61
2021/12/30 00:18:26;;;;;;;33.05;25.25;;;-12.10;82.50;-13.20;98805.00;;;;4941410;28;87414;-61
2021/12/30 00:20:52;;;;;;;33.47;26.25;;;-12.10;82.40;-13.20;98796.00;;;;4943862;28;88712;-61
2021/12/30 00:23:18;;;;;;;31.30;25.92;;;-12.10;82.40;-13.20;98791.00;;;;4944834;28;88223;-60
2021/12/30 00:25:45;;;;;;;33.20;26.48;;;-12.10;82.50;-13.20;98802.00;;;;4945259;28;87262;-56
2021/12/30 00:28:16;;;;;;;33.00;25.58;;;-12.10;82.50;-13.20;98803.00;;;;4945283;28;86953;-56
2021/12/30 00:30:43;;;;;;;30.23;25.27;;;-12.00;82.70;-13.10;98807.00;;;;4944344;28;87539;-56
2021/12/30 00:33:09;;;;;;;32.20;26.02;;;-12.00;82.70;-13.10;98799.00;;;;4944051;28;87449;-56
2021/12/30 00:35:36;;;;;;;32.58;25.00;;;-12.00;82.60;-13.10;98804.00;;;;4943667;28;87390;-57
2021/12/30 00:38:04;;;;;;;33.35;25.20;;;-12.00;82.60;-13.10;98798.00;;;;4931498;28;86656;-57
2021/12/30 00:40:31;;;;;;;31.55;25.60;;;-11.90;82.60;-13.10;98799.00;;;;4943774;28;86937;-52
2021/12/30 00:42:59;;;;;;;30.42;24.50;;;-11.90;82.60;-13.10;98801.00;;;;4932214;28;90459;-55
2021/12/30 00:45:27;;;;;;;32.28;25.17;;;-11.90;82.70;-13.00;98812.00;;;;4943378;28;87856;-57
2021/12/30 00:47:53;;;;;;;31.13;24.70;;;-11.90;82.80;-13.00;98802.00;;;;4944127;28;87055;-57
2021/12/30 00:50:19;;;;;;;30.25;24.48;;;-11.90;82.80;-13.00;98806.00;;;;4934863;28;88586;-61
2021/12/30 00:52:46;;;;;;;32.67;25.17;;;-11.80;83.00;-12.90;98807.00;;;;4942989;28;87532;-61
2021/12/30 00:55:13;;;;;;;32.95;26.40;;;-11.80;83.00;-12.90;98812.00;;;;4943498;28;86995;-61
2021/12/30 00:57:41;;;;;;;31.55;24.38;;;-11.80;82.70;-12.90;98807.00;;;;4944369;28;87481;-61
2021/12/30 01:00:15;;;;;;;28.50;24.38;;;-11.80;82.70;-12.90;98802.00;;;;4942120;28;88772;-61
2021/12/30 01:02:42;;;;;;;31.90;25.98;;;-11.80;82.70;-12.80;98799.00;;;;4943818;28;87417;-61
2021/12/30 01:05:10;;;;;;;28.95;24.13;;;-11.70;82.80;-12.80;98800.00;;;;4943681;28;87331;-61
2021/12/30 01:07:37;;;;;;;29.67;24.45;;;-11.80;82.70;-12.90;98812.00;;;;4943956;28;87013;-61
2021/12/30 01:10:06;;;;;;;31.27;25.20;;;-11.70;82.90;-12.80;98808.00;;;;4942749;28;89221;-61
2021/12/30 01:12:33;;;;;;;31.38;25.58;;;-11.70;82.80;-12.80;98794.00;;;;4943224;28;88262;-62
2021/12/30 01:15:06;;;;;;;31.05;25.25;;;-11.70;82.70;-12.90;98798.00;;;;4943053;28;87102;-61
2021/12/30 01:20:14;;;;;;;33.95;25.30;;;-11.80;82.60;-12.90;98787.00;;;;4943540;28;87682;-61
2021/12/30 01:22:41;;;;;;;31.15;24.83;;;-11.80;82.70;-12.90;98780.00;;;;4943142;28;87404;-61
2021/12/30 01:25:08;;;;;;;29.02;24.35;;;-11.70;83.20;-12.90;98783.00;;;;4943622;28;86930;-61
2021/12/30 01:27:36;;;;;;;31.00;24.33;;;-11.70;83.10;-12.80;98786.00;;;;4943692;28;86380;-61
2021/12/30 01:30:10;;;;;;;32.90;25.65;;;-11.70;83.00;-12.80;98777.00;;;;4896263;28;1335232;-61
2021/12/30 01:32:36;;;;;;;31.70;25.80;;;-11.70;83.00;-12.80;98774.00;;;;4943831;28;87648;-61
2021/12/30 01:35:04;;;;;;;31.42;24.73;;;-11.70;82.90;-12.80;98782.00;;;;4932535;28;88056;-59
2021/12/30 01:37:31;;;;;;;33.17;25.75;;;-11.70;83.00;-12.80;98777.00;;;;4942962;28;87627;-59
2021/12/30 01:39:57;;;;;;;29.50;24.90;;;-11.70;83.10;-12.80;98777.00;;;;4943372;28;87674;-58
2021/12/30 01:42:23;;;;;;;31.17;25.80;;;-11.70;83.20;-12.80;98782.00;;;;4943472;28;87733;-57
2021/12/30 01:44:49;;;;;;;31.23;25.58;;;-11.70;83.10;-12.80;98779.00;;;;4944060;28;87335;-56
2021/12/30 01:47:16;;;;;;;31.98;26.02;;;-11.70;83.10;-12.80;98777.00;;;;4931537;28;87105;-56
2021/12/30 01:49:42;;;;;;;35.30;26.95;;;-11.70;83.20;-12.70;98766.00;;;;4943412;28;88658;-59
2021/12/30 01:52:08;;;;;;;30.42;25.15;;;-11.60;83.40;-12.70;98775.00;;;;4943510;28;87472;-62
2021/12/30 01:54:34;;;;;;;30.83;24.70;;;-11.60;83.40;-12.70;98779.00;;;;4942999;28;86959;-62
2021/12/30 01:57:05;;;;;;;31.77;25.50;;;-11.60;83.60;-12.70;98779.00;;;;4942262;28;87455;-57
2021/12/30 01:59:31;;;;;;;32.13;26.17;;;-11.60;83.50;-12.70;98769.00;;;;4931080;28;90889;-54
2021/12/30 02:01:58;;;;;;;31.23;26.80;;;-11.60;83.30;-12.60;98776.00;;;;4942689;28;87375;-57
2021/12/30 02:04:26;;;;;;;30.55;25.55;;;-11.50;83.60;-12.70;98780.00;;;;4942875;28;86938;-57
2021/12/30 02:06:54;;;;;;;29.60;25.42;;;-11.50;83.40;-12.60;98769.00;;;;4942672;28;87125;-58
2021/12/30 02:09:21;;;;;;;33.70;27.33;;;-11.50;83.50;-12.60;98779.00;;;;4942515;28;87333;-57
2021/12/30 02:11:48;;;;;;;33.78;25.90;;;-11.50;83.40;-12.60;98780.00;;;;4946671;28;88220;-57
2021/12/30 02:14:15;;;;;;;30.45;26.30;;;-11.60;83.20;-12.60;98779.00;;;;4941504;28;86981;-56
2021/12/30 02:16:43;;;;;;;34.03;26.05;;;-11.50;83.50;-12.60;98775.00;;;;4941581;28;86424;-59
2021/12/30 02:19:09;;;;;;;32.10;25.95;;;-11.50;83.70;-12.60;98761.00;;;;4941506;28;87284;-58
2021/12/30 02:21:36;;;;;;;30.95;25.50;;;-11.50;83.60;-12.50;98760.00;;;;4956471;28;87989;-58
2021/12/30 02:24:04;;;;;;;33.70;27.33;;;-11.40;83.80;-12.50;98764.00;;;;4923730;28;88376;-56
2021/12/30 02:26:30;;;;;;;32.92;25.90;;;-11.40;83.80;-12.40;98756.00;;;;4924775;28;87637;-57
2021/12/30 02:28:56;;;;;;;33.33;26.42;;;-11.30;83.70;-12.40;98749.00;;;;4938241;28;88616;-55
2021/12/30 02:31:27;;;;;;;32.60;26.92;;;-11.30;83.50;-12.40;98749.00;;;;4941735;28;87371;-57
2021/12/30 02:33:57;;;;;;;;;;;-11.30;83.50;-12.30;98763.00;;;;4941516;28;87479;-56
2021/12/30 02:36:27;;;;;;;32.53;26.98;;;-11.30;83.40;-12.40;98765.00;;;;4942390;28;87291;-55
2021/12/30 02:38:54;;;;;;;33.10;26.08;;;-11.30;83.40;-12.30;98758.00;;;;4915241;28;89476;-52
2021/12/30 02:41:20;;;;;;;31.65;26.35;;;-11.30;83.60;-12.30;98757.00;;;;4933729;28;89776;-57
2021/12/30 02:43:48;;;;;;;32.05;27.63;;;-11.20;83.50;-12.30;98766.00;;;;4940257;28;87308;-63
2021/12/30 02:46:20;;;;;;;32.60;27.30;;;-11.20;83.40;-12.30;98763.00;;;;4941727;28;87279;-62
2021/12/30 02:48:46;;;;;;;35.60;27.73;;;-11.20;83.30;-12.30;98745.00;;;;4941492;28;88774;-61
2021/12/30 02:51:12;;;;;;;30.63;25.60;;;-11.20;83.40;-12.30;98747.00;;;;4941131;28;87095;-61
2021/12/30 02:53:39;;;;;;;31.35;26.70;;;-11.20;83.40;-12.20;98750.00;;;;4940754;28;87139;-60
2021/12/30 02:56:07;;;;;;;32.60;26.77;;;-11.20;83.40;-12.20;98752.00;;;;4941007;28;87595;-62
2021/12/30 02:58:33;;;;;;;32.17;27.15;;;-11.20;83.40;-12.30;98749.00;;;;4916707;28;89017;-60
2021/12/30 03:01:18;;;;;;;32.28;26.42;;;-11.20;83.40;-12.20;98758.00;;;;4941111;28;87304;-61
2021/12/30 03:03:45;;;;;;;31.55;26.65;;;-11.20;83.50;-12.20;98757.00;;;;4941982;28;87428;-61
2021/12/30 03:06:14;;;;;;;33.00;27.20;;;-11.20;83.50;-12.20;98763.00;;;;4941628;28;86358;-60
2021/12/30 03:08:41;;;;;;;32.10;25.52;;;-11.10;83.60;-12.20;98752.00;;;;4932397;28;87670;-61
2021/12/30 03:11:08;;;;;;;35.33;26.98;;;-11.10;83.50;-12.20;98739.00;;;;4941530;28;87506;-61
2021/12/30 03:13:36;;;;;;;32.63;26.98;;;-11.10;83.40;-12.10;98747.00;;;;4940214;28;88000;-62
2021/12/30 03:16:06;;;;;;;32.72;26.95;;;-11.10;83.40;-12.10;98746.00;;;;4940823;28;87075;-61
2021/12/30 03:18:36;;;;;;;32.22;25.73;;;-11.10;83.40;-12.10;98739.00;;;;4937444;28;87729;-60
2021/12/30 03:21:05;;;;;;;31.80;26.13;;;-11.10;83.40;-12.10;98731.00;;;;4940359;28;88422;-61
2021/12/30 03:23:32;;;;;;;34.10;27.75;;;-11.10;83.30;-12.10;98734.00;;;;4927277;28;87212;-61
2021/12/30 03:25:59;;;;;;;33.17;27.00;;;-11.10;83.20;-12.10;98739.00;;;;4940698;28;87274;-61
2021/12/30 03:28:25;;;;;;;32.58;25.60;;;-11.10;83.40;-12.20;98743.00;;;;4939886;28;88705;-61
2021/12/30 03:30:52;;;;;;;32.90;28.00;;;-11.10;83.50;-12.20;98731.00;;;;4940383;28;87378;-61
2021/12/30 03:33:23;;;;;;;33.88;26.60;;;-11.10;83.70;-12.20;98741.00;;;;4945796;28;87313;-62
2021/12/30 03:35:49;;;;;;;33.45;26.17;;;-11.10;83.80;-12.20;98727.00;;;;4940638;28;87177;-62
2021/12/30 03:38:15;;;;;;;32.88;26.77;;;-11.10;83.90;-12.10;98740.00;;;;4939330;28;88433;-62
2021/12/30 03:40:41;;;;;;;32.85;26.08;;;-11.10;83.80;-12.20;98733.00;;;;4939922;28;88389;-62
2021/12/30 03:43:07;;;;;;;32.28;26.52;;;-11.10;83.70;-12.20;98736.00;;;;4930172;28;87237;-62
2021/12/30 03:45:33;;;;;;;33.45;26.27;;;-11.10;84.10;-12.20;98737.00;;;;4928722;28;87094;-62
2021/12/30 03:47:59;;;;;;;31.05;26.08;;;-11.10;84.20;-12.20;98738.00;;;;4933274;28;87628;-61
2021/12/30 03:50:29;;;;;;;34.90;27.27;;;-11.10;84.20;-12.20;98740.00;;;;4940602;28;87503;-60
2021/12/30 03:53:00;;;;;;;32.53;26.55;;;-11.10;84.00;-12.20;98733.00;;;;4931578;28;87849;-60
2021/12/30 03:55:29;;;;;;;31.27;25.55;;;-11.10;83.90;-12.20;98743.00;;;;4941093;28;86533;-61
2021/12/30 03:57:56;;;;;;;32.33;25.05;;;-11.10;83.80;-12.20;98743.00;;;;4940367;28;87651;-61
2021/12/30 04:00:25;;;;;;;32.83;26.20;;;-11.10;84.00;-12.20;98743.00;;;;4930496;28;88569;-61
2021/12/30 04:02:51;;;;;;;31.45;25.05;;;-11.10;84.10;-12.10;98732.00;;;;4940163;28;88244;-61
2021/12/30 04:05:18;;;;;;;31.25;24.55;;;-11.10;84.10;-12.10;98736.00;;;;4939308;28;87466;-61
2021/12/30 04:07:45;;;;;;;31.67;25.73;;;-11.10;83.90;-12.20;98721.00;;;;4938851;28;87713;-62
2021/12/30 04:10:14;;;;;;;29.80;25.10;;;-11.10;83.70;-12.20;98717.00;;;;4938914;28;87380;-61
2021/12/30 04:12:41;;;;;;;28.88;24.58;;;-11.10;83.90;-12.20;98707.00;;;;4940024;28;87102;-62
2021/12/30 04:15:09;;;;;;;31.40;25.08;;;-11.10;84.10;-12.20;98714.00;;;;4939217;28;87020;-62
2021/12/30 04:17:36;;;;;;;31.50;25.65;;;-11.10;84.20;-12.20;98711.00;;;;4939142;28;88144;-61
2021/12/30 04:20:07;;;;;;;31.05;26.30;;;-11.10;84.20;-12.10;98711.00;;;;4940755;28;86356;-61
2021/12/30 04:22:35;;;;;;;31.77;25.10;;;-11.00;84.40;-12.10;98727.00;;;;4939794;28;87266;-62
2021/12/30 04:25:02;;;;;;;33.78;26.33;;;-11.00;84.30;-12.10;98719.00;;;;4908293;28;87292;-62
2021/12/30 04:27:28;;;;;;;32.13;25.80;;;-11.00;84.30;-12.00;98725.00;;;;4938460;28;88496;-61
2021/12/30 04:29:54;;;;;;;31.92;26.55;;;-11.00;84.40;-12.00;98724.00;;;;4939293;28;88361;-61
2021/12/30 04:32:21;;;;;;;32.03;25.92;;;-10.90;84.30;-12.00;98709.00;;;;4923282;28;87345;-62
2021/12/30 04:34:47;;;;;;;32.58;26.90;;;-10.90;84.30;-11.90;98719.00;;;;4940198;28;87051;-62
2021/12/30 04:37:13;;;;;;;32.95;26.95;;;-10.90;84.30;-11.90;98714.00;;;;4938483;28;88843;-62
2021/12/30 04:39:39;;;;;;;34.40;27.67;;;-10.90;84.10;-11.90;98717.00;;;;4939831;28;87515;-62
2021/12/30 04:42:05;;;;;;;31.63;27.73;;;-10.90;84.30;-11.90;98713.00;;;;4938733;28;87312;-62
2021/12/30 04:44:32;;;;;;;35.80;27.50;;;-10.90;84.30;-11.90;98723.00;;;;4939163;28;86737;-62
2021/12/30 04:46:58;;;;;;;34.60;27.02;;;-10.90;84.30;-11.90;98722.00;;;;4921606;28;88989;-62
2021/12/30 04:49:27;;;;;;;32.67;27.88;;;-10.80;84.40;-11.90;98708.00;;;;4938941;28;88170;-62
2021/12/30 04:51:53;;;;;;;32.53;27.95;;;-10.80;84.40;-11.90;98724.00;;;;4939616;28;88205;-62
2021/12/30 04:54:20;;;;;;;33.85;27.90;;;-10.80;84.40;-11.90;98720.00;;;;4939404;28;87329;-62
2021/12/30 04:56:46;;;;;;;34.08;27.65;;;-10.80;84.40;-11.90;98729.00;;;;4939226;28;87807;-61
2021/12/30 04:59:12;;;;;;;32.85;27.35;;;-10.80;84.70;-11.90;98715.00;;;;4939952;28;87249;-61
2021/12/30 05:01:39;;;;;;;34.17;26.85;;;-10.80;84.40;-11.90;98721.00;;;;4954652;28;86968;-61
2021/12/30 05:04:06;;;;;;;32.35;28.08;;;-10.80;84.10;-11.90;98711.00;;;;4939629;28;87244;-62
2021/12/30 05:06:34;;;;;;;32.35;27.83;;;-10.90;83.90;-11.90;98719.00;;;;4941991;28;87083;-61
2021/12/30 05:09:00;;;;;;;36.38;28.38;;;-10.90;84.00;-12.00;98728.00;;;;4943710;28;87164;-62
2021/12/30 05:11:27;;;;;;;33.33;28.20;;;-10.90;84.00;-11.90;98721.00;;;;4943056;28;87120;-62
2021/12/30 05:13:53;;;;;;;35.17;28.58;;;-10.90;83.90;-11.90;98734.00;;;;4942689;28;87477;-62
2021/12/30 05:16:19;;;;;;;33.83;27.92;;;-10.90;84.00;-12.00;98715.00;;;;4941583;28;88743;-62
2021/12/30 05:18:46;;;;;;;35.55;28.92;;;-10.90;84.20;-11.90;98729.00;;;;4943125;28;88250;-61
2021/12/30 05:21:12;;;;;;;33.35;27.30;;;-10.80;84.20;-11.90;98734.00;;;;4942927;28;87521;-62
2021/12/30 05:23:39;;;;;;;33.10;26.90;;;-10.80;84.00;-11.90;98714.00;;;;4942569;28;87424;-62
2021/12/30 05:26:05;;;;;;;32.35;27.17;;;-10.90;84.00;-11.90;98719.00;;;;4942984;28;87728;-62
2021/12/30 05:28:31;;;;;;;32.92;26.52;;;-10.80;84.10;-11.90;98721.00;;;;4942760;28;87496;-61
2021/12/30 05:30:57;;;;;;;32.30;27.00;;;-10.90;83.90;-11.90;98718.00;;;;4942758;28;87096;-62
2021/12/30 05:33:23;;;;;;;32.53;27.40;;;-10.80;84.10;-11.90;98711.00;;;;4942544;28;86807;-62
2021/12/30 05:35:49;;;;;;;30.30;26.75;;;-10.80;84.10;-11.90;98716.00;;;;4942322;28;87773;-62
2021/12/30 05:38:17;;;;;;;33.20;27.08;;;-10.80;84.30;-11.90;98711.00;;;;4940564;28;89404;-62
2021/12/30 05:40:44;;;;;;;32.92;26.70;;;-10.80;84.10;-11.90;98706.00;;;;4933325;28;88343;-62
2021/12/30 05:43:10;;;;;;;34.00;27.60;;;-10.80;84.30;-11.80;98699.00;;;;4915034;28;87313;-62
2021/12/30 05:45:37;;;;;;;34.40;28.42;;;-10.80;84.20;-11.80;98723.00;;;;4950283;28;87661;-62
2021/12/30 05:48:03;;;;;;;31.23;27.67;;;-10.70;84.60;-11.80;98717.00;;;;4941551;28;87658;-63
2021/12/30 05:50:33;;;;;;;33.97;27.77;;;-10.70;84.60;-11.70;98726.00;;;;4941710;28;87109;-62
2021/12/30 05:53:01;;;;;;;33.05;27.38;;;-10.60;84.70;-11.60;98732.00;;;;4941481;28;87071;-63
2021/12/30 05:55:28;;;;;;;34.88;27.80;;;-10.60;84.70;-11.60;98727.00;;;;4941653;28;87831;-63
2021/12/30 05:57:55;;;;;;;32.75;27.73;;;-10.60;84.70;-11.60;98743.00;;;;4929127;28;91146;-63
2021/12/30 06:00:25;;;;;;;32.47;27.38;;;-10.50;84.70;-11.50;98728.00;;;;4926671;28;87474;-62
2021/12/30 06:02:52;;;;;;;33.03;26.57;;;-10.50;84.70;-11.50;98726.00;;;;4941985;28;87089;-63
2021/12/30 06:05:19;;;;;;;34.47;27.50;;;-10.40;84.70;-11.50;98724.00;;;;4941381;28;88439;-62
2021/12/30 06:07:45;;;;;;;35.45;28.58;;;-10.40;84.80;-11.50;98727.00;;;;4925191;28;91631;-62
2021/12/30 06:10:12;;;;;;;33.10;27.20;;;-10.40;84.90;-11.40;98739.00;;;;4941163;28;87127;-62
2021/12/30 06:12:38;;;;;;;35.30;27.63;;;-10.40;85.20;-11.40;98730.00;;;;4941608;28;87109;-62
2021/12/30 06:15:06;;;;;;;36.40;28.30;;;-10.40;85.10;-11.40;98727.00;;;;4941215;28;87694;-62
2021/12/30 06:17:33;;;;;;;33.60;27.85;;;-10.30;85.10;-11.40;98729.00;;;;4940440;28;87695;-66
2021/12/30 06:19:59;;;;;;;33.92;27.40;;;-10.30;85.10;-11.40;98732.00;;;;4941680;28;89881;-62
2021/12/30 06:22:26;;;;;;;37.60;27.92;;;-10.30;85.10;-11.30;98728.00;;;;4940548;28;86644;-62
2021/12/30 06:24:52;;;;;;;32.17;26.17;;;-10.30;85.00;-11.30;98736.00;;;;4941465;28;87709;-62
2021/12/30 06:27:18;;;;;;;36.00;27.58;;;-10.30;85.70;-11.20;98736.00;;;;4941425;28;87434;-63
2021/12/30 06:29:44;;;;;;;32.85;27.45;;;-10.20;85.00;-11.20;98742.00;;;;4941022;28;88350;-63
2021/12/30 06:32:10;;;;;;;32.83;26.80;;;-10.20;84.90;-11.20;98737.00;;;;4942085;28;86983;-62
2021/12/30 06:34:36;;;;;;;32.92;27.40;;;-10.20;84.70;-11.20;98730.00;;;;4923076;28;89577;-62
2021/12/30 06:37:03;;;;;;;34.72;27.45;;;-10.20;85.00;-11.20;98738.00;;;;4940133;28;87280;-62
2021/12/30 06:39:29;;;;;;;36.67;27.65;;;-10.20;84.80;-11.20;98740.00;;;;4941169;28;87062;-62
2021/12/30 06:41:55;;;;;;;37.75;27.80;;;-10.10;84.70;-11.10;98736.00;;;;4941009;28;87296;-62
2021/12/30 06:44:21;;;;;;;36.83;29.20;;;-10.10;84.70;-11.10;98740.00;;;;4941273;28;87570;-62
2021/12/30 06:46:57;;;;;;;37.15;29.10;;;-10.10;84.80;-11.10;98735.00;;;;4940727;28;89527;-62
2021/12/30 06:49:24;;;;;;;36.92;28.73;;;-10.10;84.70;-11.10;98737.00;;;;4941134;28;87352;-62
2021/12/30 06:51:51;;;;;;;42.60;29.95;;;-10.00;84.80;-11.00;98742.00;;;;4941882;28;86979;-62
2021/12/30 06:54:17;;;;;;;36.33;27.60;;;-10.00;84.80;-11.00;98734.00;;;;4940485;28;88499;-62
2021/12/30 06:56:44;;;;;;;38.92;28.98;;;-10.00;84.70;-10.90;98731.00;;;;4940529;28;88434;-63
2021/12/30 06:59:16;;;;;;;40.97;29.52;;;-9.90;84.90;-10.90;98734.00;;;;4941721;28;87214;-62
2021/12/30 07:01:46;;;;;;;39.75;28.65;;;-9.90;84.80;-10.90;98730.00;;;;4924851;28;87708;-63
2021/12/30 07:04:12;;;;;;;40.63;29.23;;;-9.90;84.70;-10.80;98737.00;;;;4940877;28;87560;-62
2021/12/30 07:06:38;;;;;;;39.55;29.23;;;-9.80;84.80;-10.80;98741.00;;;;4941016;28;87451;-63
2021/12/30 07:09:05;;;;;;;39.65;28.50;;;-9.80;84.80;-10.80;98737.00;;;;4941601;28;87255;-63
2021/12/30 07:11:31;;;;;;;37.97;28.92;;;-9.80;84.80;-10.70;98730.00;;;;4941751;28;86476;-63
2021/12/30 07:13:57;;;;;;;36.50;27.83;;;-9.70;84.70;-10.70;98741.00;;;;4940324;28;87872;-63
2021/12/30 07:16:23;;;;;;;43.15;28.92;;;-9.70;84.50;-10.70;98737.00;;;;4940515;28;87452;-63
2021/12/30 07:18:49;;;;;;;42.17;30.65;;;-9.70;84.40;-10.60;98748.00;;;;4940848;28;88844;-63
2021/12/30 07:21:16;;;;;;;42.78;29.77;;;-9.70;84.40;-10.60;98739.00;;;;4941080;28;87322;-63
2021/12/30 07:23:43;;;;;;;39.65;30.00;;;-9.70;84.50;-10.60;98731.00;;;;4940167;28;87741;-63
2021/12/30 07:26:09;;;;;;;49.75;30.63;;;-9.60;84.70;-10.50;98755.00;;;;4940575;28;87326;-62
2021/12/30 07:28:35;;;;;;;40.88;30.17;;;-9.60;84.60;-10.50;98748.00;;;;4940705;28;87162;-62
2021/12/30 07:31:01;;;;;;;42.85;29.80;;;-9.50;84.60;-10.50;98746.00;;;;4940437;28;87477;-62
2021/12/30 07:33:27;;;;;;;43.65;28.50;;;-9.50;84.60;-10.40;98748.00;;;;4923414;28;87658;-63
2021/12/30 07:35:53;;;;;;;39.22;29.92;;;-9.40;84.60;-10.40;98755.00;;;;4940521;28;87443;-62
2021/12/30 07:38:19;;;;;;;46.72;30.10;;;-9.40;85.10;-10.30;98761.00;;;;4940038;28;87421;-62
2021/12/30 07:40:45;;;;;;;41.40;29.27;;;-9.40;84.50;-10.30;98762.00;;;;4940063;28;87451;-62
2021/12/30 07:43:12;;;;;;;42.67;29.95;;;-9.30;84.50;-10.30;98764.00;;;;4930830;28;90797;-62
2021/12/30 07:45:38;;;;;;;42.20;29.00;;;-9.30;84.20;-10.20;98774.00;;;;4940740;28;88407;-63
2021/12/30 07:48:04;;;;;;;38.85;29.02;;;-9.30;84.40;-10.20;98780.00;;;;4940438;28;86976;-62
2021/12/30 07:50:31;;;;;;;39.88;29.90;;;-9.30;83.90;-10.20;98773.00;;;;4928587;28;87363;-62
2021/12/30 07:52:57;;;;;;;42.95;30.58;;;-9.20;84.30;-10.20;98769.00;;;;4923267;28;87674;-63
2021/12/30 07:55:23;;;;;;;43.35;30.60;;;-9.20;84.30;-10.10;98768.00;;;;4939064;28;88901;-62
2021/12/30 07:57:51;;;;;;;45.55;31.45;;;-9.20;84.30;-10.10;98769.00;;;;4940566;28;86965;-62
2021/12/30 08:00:18;;;;;;;38.92;29.30;;;-9.20;84.30;-10.10;98766.00;;;;4940843;28;86793;-63
2021/12/30 08:02:44;;;;;;;38.80;28.30;;;-9.10;84.20;-10.00;98759.00;;;;4940257;28;87947;-62
2021/12/30 08:05:14;;;;;;;41.25;29.23;;;-9.10;84.20;-9.90;98753.00;;;;4955892;28;87378;-63
2021/12/30 08:07:42;;;;;;;38.83;27.38;;;-9.00;84.40;-9.90;98762.00;;;;4939988;28;88394;-62
2021/12/30 08:10:13;;;;;;;37.83;28.75;;;-9.00;84.00;-9.80;98764.00;;;;4939715;28;87540;-63
2021/12/30 08:12:42;;;;;;;36.83;28.40;;;-8.90;83.80;-9.80;98745.00;;;;4939901;28;87896;-62
2021/12/30 08:15:09;;;;;;;41.28;29.35;;;-8.80;83.90;-9.80;98752.00;;;;4938893;28;87720;-62
2021/12/30 08:17:36;;;;;;;39.63;28.70;;;-8.80;83.60;-9.80;98760.00;;;;4940200;28;87588;-62
2021/12/30 08:20:08;;;;;;;40.53;29.90;;;-8.80;83.30;-9.80;98766.00;;;;4939768;28;87241;-61
2021/12/30 08:22:35;;;;;;;37.28;28.98;;;-8.80;83.40;-9.70;98753.00;;;;4940030;28;87594;-63
2021/12/30 08:25:02;;;;;;;40.42;29.38;;;-8.80;84.10;-9.70;98751.00;;;;4937913;28;87414;-61
2021/12/30 08:27:28;;;;;;;40.85;28.23;;;-8.80;83.20;-9.70;98749.00;;;;4940038;28;87385;-62
2021/12/30 08:29:55;;;;;;;39.13;28.35;;;-8.70;84.00;-9.70;98758.00;;;;4939616;28;86963;-62
2021/12/30 08:32:21;;;;;;;36.97;29.73;;;-8.70;83.10;-9.60;98774.00;;;;4939884;28;88690;-62
2021/12/30 08:34:48;;;;;;;39.13;27.73;;;-8.70;83.00;-9.70;98764.00;;;;4938893;28;88339;-62
2021/12/30 08:37:16;;;;;;;38.22;28.52;;;-8.70;83.00;-9.60;98749.00;;;;4939211;28;87119;-62
2021/12/30 08:39:43;;;;;;;43.53;30.33;;;-8.70;83.10;-9.60;98751.00;;;;4939303;28;87014;-63
2021/12/30 08:42:24;;;;;;;38.17;29.38;;;-8.70;83.10;-9.60;98751.00;;;;4942432;28;87315;-63
2021/12/30 08:44:52;;;;;;;41.95;28.08;;;-8.60;83.20;-9.50;98741.00;;;;4920140;28;87615;-61
2021/12/30 08:47:30;;;;;;;38.22;28.80;;;-8.60;83.20;-9.40;98757.00;;;;4934371;28;87014;-62
2021/12/30 08:50:06;;;;;;;40.78;28.70;;;-8.50;83.80;-9.30;98749.00;;;;4943523;28;86233;-62
2021/12/30 08:52:33;;;;;;;36.05;27.90;;;-8.40;83.50;-9.30;98749.00;;;;4958325;28;87723;-62
2021/12/30 08:55:05;;;;;;;41.15;29.88;;;-8.40;83.00;-9.30;98742.00;;;;4942296;28;88641;-62
2021/12/30 08:57:33;;;;;;;39.70;29.25;;;-8.40;82.60;-9.30;98739.00;;;;4941750;28;87957;-63
2021/12/30 09:00:01;;;;;;;37.80;30.10;;;-8.40;82.80;-9.30;98731.00;;;;4943371;28;87365;-62
2021/12/30 09:02:28;;;;;;;36.00;28.30;;;-8.40;83.20;-9.30;98738.00;;;;4942704;28;87710;-62
2021/12/30 09:04:55;;;;;;;37.33;29.90;;;-8.40;82.80;-9.30;98728.00;;;;4943046;28;88090;-62
2021/12/30 09:07:21;;;;;;;38.00;28.58;;;-8.40;82.50;-9.30;98734.00;;;;4943141;28;87327;-63
2021/12/30 09:09:47;;;;;;;39.20;29.40;;;-8.40;82.80;-9.30;98731.00;;;;4943133;28;87002;-63
2021/12/30 09:12:13;;;;;;;36.70;28.00;;;-8.40;83.20;-9.20;98735.00;;;;4942056;28;87656;-62
2021/12/30 09:14:39;;;;;;;38.28;29.13;;;-8.30;83.50;-9.20;98736.00;;;;4942229;28;87677;-63
2021/12/30 09:17:06;;;;;;;37.97;29.33;;;-8.30;83.20;-9.20;98745.00;;;;4943428;28;87521;-63
2021/12/30 09:19:33;;;;;;;37.97;30.98;;;-8.30;83.10;-9.10;98737.00;;;;4942589;28;87481;-62
2021/12/30 09:21:59;;;;;;;36.65;28.85;;;-8.30;83.50;-9.10;98740.00;;;;4942515;28;87945;-62
2021/12/30 09:24:25;;;;;;;35.85;28.50;;;-8.20;83.50;-9.00;98742.00;;;;4941895;28;88374;-62
2021/12/30 09:26:53;;;;;;;39.92;32.78;;;-8.20;83.10;-9.00;98742.00;;;;4942769;28;87423;-62
2021/12/30 09:29:19;;;;;;;40.25;29.27;;;-8.10;83.40;-9.00;98732.00;;;;4939581;28;89420;-62
2021/12/30 09:31:49;;;;;;;36.92;28.65;;;-8.10;83.30;-9.00;98734.00;;;;4942690;28;87729;-62
2021/12/30 09:34:17;;;;;;;38.55;28.60;;;-8.10;83.40;-9.00;98735.00;;;;4936322;28;87481;-62
2021/12/30 09:36:44;;;;;;;39.15;30.40;;;-8.10;83.50;-9.00;98732.00;;;;4935717;28;87736;-62
2021/12/30 09:39:13;;;;;;;38.00;29.88;;;-8.00;83.80;-8.90;98731.00;;;;4927907;28;86421;-56
2021/12/30 09:41:43;;;;;;;37.13;29.35;;;-8.00;83.80;-8.90;98732.00;;;;4929809;28;89186;-61
2021/12/30 09:44:13;;;;;;;40.53;29.88;;;-8.00;83.50;-8.80;98732.00;;;;4929867;28;87439;-62
2021/12/30 09:46:40;;;;;;;38.50;30.90;;;-7.90;84.10;-8.80;98728.00;;;;4930319;28;88337;-63
2021/12/30 09:49:09;;;;;;;38.97;30.10;;;-7.90;83.10;-8.80;98731.00;;;;4929452;28;87426;-61
2021/12/30 09:51:36;;;;;;;39.03;29.85;;;-7.90;83.30;-8.80;98727.00;;;;4902974;28;90046;-62
2021/12/30 09:54:04;;;;;;;36.88;29.77;;;-7.90;83.30;-8.70;98733.00;;;;4902973;28;87445;-62
2021/12/30 09:56:31;;;;;;;36.00;29.40;;;-7.80;83.10;-8.70;98721.00;;;;4918738;28;86989;-62
2021/12/30 09:58:57;;;;;;;42.05;31.08;;;-7.80;83.10;-8.70;98724.00;;;;4933087;28;87005;-61
2021/12/30 10:01:23;;;;;;;36.65;28.70;;;-7.80;83.80;-8.70;98718.00;;;;4942018;28;87538;-62
2021/12/30 10:03:56;;;;;;;38.70;31.13;;;-7.80;83.90;-8.70;98713.00;;;;4942572;28;87410;-62
2021/12/30 10:06:22;;;;;;;40.38;31.17;;;-7.80;83.50;-8.70;98718.00;;;;4942706;28;86971;-62
2021/12/30 10:09:10;;;;;;;38.78;30.75;;;-7.80;83.50;-8.70;98707.00;;;;4942290;28;87328;-61
2021/12/30 10:11:51;;;;;;;39.85;32.58;;;-7.80;83.80;-8.70;98706.00;;;;4908359;28;88460;-61
2021/12/30 10:14:34;;;;;;;36.50;30.83;;;-7.80;83.70;-8.70;98710.00;;;;4926004;28;88237;-61
2021/12/30 10:17:23;;;;;;;43.50;30.63;;;-7.80;83.80;-8.70;98704.00;;;;4938858;28;87547;-62
2021/12/30 10:19:51;;;;;;;42.42;32.60;;;-7.80;84.00;-8.70;98701.00;;;;4928857;28;87352;-62
2021/12/30 10:22:21;;;;;;;40.58;31.70;;;-7.80;84.00;-8.70;98707.00;;;;4919813;28;88161;-62
2021/12/30 10:24:49;;;;;;;42.30;32.42;;;-7.80;84.40;-8.60;98690.00;;;;4905233;28;87529;-62
2021/12/30 10:27:32;;;;;;;38.90;30.63;;;-7.70;84.80;-8.60;98688.00;;;;4914811;28;86977;-62
2021/12/30 10:29:59;;;;;;;37.55;30.33;;;-7.70;84.40;-8.60;98682.00;;;;4941230;28;86317;-61
2021/12/30 10:32:29;;;;;;;41.47;32.05;;;-7.60;84.00;-8.60;98681.00;;;;4941466;28;87641;-61
2021/12/30 10:35:13;;;;;;;40.35;31.90;;;-7.70;83.80;-8.60;98662.00;;;;4931160;28;87242;-61